createdAt,value
2017-11-11T17:40:09.000Z,2.70
2017-11-11T17:42:36.480Z,2.70
2017-11-11T17:45:03.972Z,2.30
2017-11-11T17:47:31.475Z,2.90
2017-11-11T17:49:59.172Z,3.07
2017-11-11T17:52:26.699Z,5.37
2017-11-11T17:54:54.180Z,7.63
2017-11-11T17:57:22.451Z,9.10
2017-11-11T17:59:49.932Z,8.07
2017-11-11T18:02:17.432Z,6.67
2017-11-11T18:04:44.952Z,8.20
2017-11-11T18:07:12.447Z,11.03
2017-11-11T18:09:39.930Z,8.32
2017-11-11T18:12:07.416Z,6.93
2017-11-11T18:14:34.924Z,6.90
2017-11-11T18:17:02.415Z,6.83
2017-11-11T18:19:30.669Z,6.90
2017-11-11T18:21:58.179Z,6.77
2017-11-11T18:24:26.808Z,6.03
2017-11-11T18:26:54.363Z,5.47
2017-11-11T18:29:21.865Z,6.03
2017-11-11T18:31:49.382Z,5.85
2017-11-11T18:34:16.904Z,5.60
2017-11-11T18:36:44.400Z,5.37
2017-11-11T18:39:11.943Z,4.87
2017-11-11T18:41:39.434Z,5.10
2017-11-11T18:46:48.420Z,4.57
2017-11-11T18:49:15.969Z,5.10
2017-11-11T18:51:43.492Z,4.53
2017-11-11T18:54:11.853Z,4.23
2017-11-11T18:56:40.281Z,4.80
2017-11-11T18:59:07.871Z,3.83
2017-11-11T19:01:35.376Z,4.87
2017-11-11T19:04:12.722Z,4.37
2017-11-11T19:06:40.224Z,4.77
2017-11-11T19:09:07.793Z,4.13
2017-11-11T19:11:35.310Z,4.67
2017-11-11T19:14:02.793Z,4.17
2017-11-11T19:16:31.075Z,4.47
2017-11-11T19:18:58.611Z,4.73
2017-11-11T19:21:26.098Z,3.93
2017-11-11T19:23:54.373Z,4.20
2017-11-11T19:26:21.852Z,4.13
2017-11-11T19:28:49.347Z,3.50
2017-11-11T19:31:16.844Z,3.63
2017-11-11T19:33:44.324Z,3.90
2017-11-11T19:36:11.827Z,3.70
2017-11-11T19:38:39.329Z,4.23
2017-11-11T19:41:06.821Z,3.30
2017-11-11T19:43:34.385Z,3.67
2017-11-11T19:46:01.903Z,3.50
2017-11-11T19:48:29.439Z,3.13
2017-11-11T19:50:56.941Z,2.90
2017-11-11T19:53:24.413Z,3.17
2017-11-11T19:55:51.919Z,2.80
2017-11-11T19:58:19.425Z,3.00
2017-11-11T20:00:49.240Z,2.93
2017-11-11T20:03:16.783Z,3.23
2017-11-11T20:05:44.261Z,3.40
2017-11-11T20:08:11.764Z,3.10
2017-11-11T20:10:39.273Z,3.40
2017-11-11T20:13:06.751Z,2.87
2017-11-11T20:15:34.263Z,3.60
2017-11-11T20:18:04.771Z,3.57
2017-11-11T20:20:35.852Z,3.60
2017-11-11T20:23:03.329Z,3.10
2017-11-11T20:25:30.832Z,2.57
2017-11-11T20:27:58.317Z,2.90
2017-11-11T20:30:25.832Z,3.00
2017-11-11T20:32:53.372Z,2.97
2017-11-11T20:35:20.875Z,3.57
2017-11-11T20:37:48.391Z,3.33
2017-11-11T20:40:17.772Z,3.13
2017-11-11T20:42:45.280Z,3.30
2017-11-11T20:45:12.783Z,2.67
2017-11-11T20:47:40.286Z,3.17
2017-11-11T20:50:07.826Z,2.80
2017-11-11T20:52:36.098Z,3.17
2017-11-11T20:55:04.447Z,2.83
2017-11-11T20:57:31.949Z,2.63
2017-11-11T20:59:59.481Z,2.93
2017-11-11T21:02:26.996Z,2.63
2017-11-11T21:04:54.480Z,2.63
2017-11-11T21:07:21.992Z,2.67
2017-11-11T21:09:49.485Z,2.63
2017-11-11T21:12:17.085Z,2.47
2017-11-11T21:14:44.748Z,2.43
2017-11-11T21:17:12.277Z,2.27
2017-11-11T21:19:39.772Z,2.40
2017-11-11T21:22:07.295Z,2.00
2017-11-11T21:24:34.795Z,2.77
2017-11-11T21:27:03.031Z,2.50
2017-11-11T21:29:30.521Z,2.50
2017-11-11T21:31:58.201Z,2.33
2017-11-11T21:34:25.719Z,2.57
2017-11-11T21:36:53.240Z,2.30
2017-11-11T21:39:20.751Z,2.43
2017-11-11T21:41:48.267Z,1.90
2017-11-11T21:44:15.749Z,2.23
2017-11-11T21:46:44.040Z,2.57
2017-11-11T21:49:11.579Z,2.03
2017-11-11T21:51:39.080Z,2.47
2017-11-11T21:54:06.583Z,2.07
2017-11-11T21:56:34.069Z,2.17
2017-11-11T21:59:14.953Z,2.53
2017-11-11T22:01:42.464Z,2.30
2017-11-11T22:04:09.960Z,1.93
2017-11-11T22:06:37.521Z,2.10
2017-11-11T22:09:05.017Z,2.20
2017-11-11T22:11:32.545Z,2.13
2017-11-11T22:14:00.131Z,2.43
2017-11-11T22:16:27.631Z,2.37
2017-11-11T22:18:55.137Z,2.20
